Time;durP1;ratioP1;P1;durP2;ratioP2;P2;SDS_P1;SDS_P2;PMS_P1;PMS_P2;Temp;Humidity;BMP_temperature;BMP_pressure;BME280_temperature;BME280_humidity;BME280_pressure;Samples;Min_cycle;Max_cycle;Signal;HPM_P1;HPM_P2
2021/08/21 00:05:06;;;;;;;8.23;3.30;;;16.10;99.90;;;;;;6677542;88;20209;-77
2021/08/21 00:15:10;;;;;;;8.57;3.85;;;15.90;99.90;;;;;;6678391;88;20166;-77
2021/08/21 00:25:12;;;;;;;6.57;3.37;;;16.00;99.90;;;;;;6678463;88;20609;-77
2021/08/21 00:35:13;;;;;;;5.87;3.45;;;15.80;99.90;;;;;;6678440;88;20198;-77
2021/08/21 00:45:14;;;;;;;4.45;3.17;;;15.70;99.90;;;;;;6677986;88;20689;-76
2021/08/21 00:55:14;;;;;;;4.65;3.08;;;15.70;99.90;;;;;;6677433;89;20188;-77
2021/08/21 01:05:16;;;;;;;5.27;3.23;;;15.60;99.90;;;;;;6684039;88;20187;-76
2021/08/21 01:15:22;;;;;;;6.00;3.28;;;15.70;99.90;;;;;;6679848;88;20500;-77
2021/08/21 01:25:26;;;;;;;6.70;3.70;;;15.50;99.90;;;;;;6678267;89;20240;-77
2021/08/21 01:35:27;;;;;;;5.50;3.33;;;15.50;99.90;;;;;;6679706;88;20685;-77
2021/08/21 01:45:28;;;;;;;5.40;3.33;;;15.60;99.90;;;;;;6678756;88;20259;-77
2021/08/21 01:55:29;;;;;;;7.37;3.58;;;15.60;99.90;;;;;;6679381;88;20292;-76
2021/08/21 02:05:30;;;;;;;5.57;3.67;;;15.60;99.90;;;;;;6679066;88;20324;-77
2021/08/21 02:15:30;;;;;;;8.02;3.87;;;15.50;99.90;;;;;;6680467;88;20184;-76
2021/08/21 02:25:32;;;;;;;8.23;4.20;;;15.40;99.90;;;;;;6680325;88;20988;-77
2021/08/21 02:35:34;;;;;;;8.98;4.68;;;15.40;99.90;;;;;;6679876;88;20190;-76
2021/08/21 02:45:34;;;;;;;6.43;4.37;;;15.40;99.90;;;;;;6680723;88;20200;-77
2021/08/21 02:55:35;;;;;;;6.20;4.30;;;15.30;99.90;;;;;;6680735;88;20600;-77
2021/08/21 03:05:35;;;;;;;5.95;4.20;;;15.10;99.90;;;;;;6680712;88;20834;-77
2021/08/21 03:15:36;;;;;;;6.97;4.20;;;15.10;99.90;;;;;;6681425;88;20208;-77
2021/08/21 03:25:37;;;;;;;7.93;4.90;;;15.10;99.90;;;;;;6681953;88;20191;-76
2021/08/21 03:35:37;;;;;;;9.55;4.80;;;15.00;99.90;;;;;;6681894;88;20198;-77
2021/08/21 03:45:40;;;;;;;9.20;5.37;;;14.90;99.90;;;;;;6680852;88;20202;-77
2021/08/21 03:55:41;;;;;;;11.80;6.05;;;14.90;99.90;;;;;;6687874;88;20741;-76
2021/08/21 04:05:42;;;;;;;10.83;5.40;;;14.90;99.90;;;;;;6689405;88;20231;-77
2021/08/21 04:15:42;;;;;;;17.02;7.07;;;14.80;99.90;;;;;;6689516;88;20531;-77
2021/08/21 04:25:43;;;;;;;13.35;7.43;;;14.90;99.90;;;;;;6689837;88;20673;-77
2021/08/21 04:35:43;;;;;;;17.80;8.70;;;14.90;99.90;;;;;;6686181;88;20186;-77
2021/08/21 04:45:44;;;;;;;22.20;9.40;;;14.90;99.90;;;;;;6688868;88;20602;-77
2021/08/21 04:55:45;;;;;;;27.73;9.68;;;14.90;99.90;;;;;;6684688;88;20384;-77
2021/08/21 05:05:45;;;;;;;34.20;9.73;;;15.00;99.90;;;;;;6686238;89;20503;-78
2021/08/21 05:15:46;;;;;;;17.90;9.23;;;15.10;99.90;;;;;;6687239;89;20689;-78
2021/08/21 05:25:48;;;;;;;22.55;9.40;;;15.10;99.90;;;;;;6688108;88;20246;-78
2021/08/21 05:35:49;;;;;;;25.33;9.70;;;15.20;99.90;;;;;;6688163;88;20330;-78
2021/08/21 05:45:50;;;;;;;28.23;9.95;;;15.20;99.90;;;;;;6690195;88;20311;-78
2021/08/21 05:55:50;;;;;;;19.00;10.15;;;15.40;99.90;;;;;;6694701;88;20249;-78
2021/08/21 06:05:51;;;;;;;19.50;10.23;;;15.50;99.90;;;;;;6699911;88;20171;-76
2021/08/21 06:15:51;;;;;;;14.63;8.60;;;15.70;99.90;;;;;;6702763;88;20190;-78
2021/08/21 06:25:52;;;;;;;14.75;9.13;;;15.90;99.90;;;;;;6717751;88;20327;-77
2021/08/21 06:35:53;;;;;;;16.98;10.63;;;15.90;99.90;;;;;;6713442;88;20453;-78
2021/08/21 06:45:53;;;;;;;19.05;11.48;;;15.90;99.90;;;;;;6712889;88;20678;-78
2021/08/21 06:55:54;;;;;;;18.23;11.05;;;16.10;99.90;;;;;;6696704;88;20231;-79
2021/08/21 07:05:54;;;;;;;18.05;10.35;;;16.30;99.90;;;;;;6697798;88;20311;-78
2021/08/21 07:15:55;;;;;;;13.75;8.68;;;16.90;99.90;;;;;;6694150;88;20174;-77
2021/08/21 07:25:56;;;;;;;11.53;6.93;;;17.50;99.90;;;;;;6699312;88;20328;-78
2021/08/21 07:35:56;;;;;;;10.50;6.50;;;18.40;99.90;;;;;;6699294;88;20924;-78
2021/08/21 07:45:57;;;;;;;10.70;5.35;;;19.10;99.90;;;;;;6700229;88;20218;-78
2021/08/21 07:55:57;;;;;;;10.43;5.25;;;19.70;99.90;;;;;;6700986;88;20256;-79
2021/08/21 08:05:58;;;;;;;9.27;5.53;;;20.50;99.90;;;;;;6697429;88;20323;-79
2021/08/21 08:15:59;;;;;;;7.37;4.10;;;21.20;99.90;;;;;;6699265;88;20679;-78
2021/08/21 08:26:00;;;;;;;5.62;3.60;;;21.60;99.90;;;;;;6702193;88;20179;-78
2021/08/21 08:36:01;;;;;;;5.78;3.33;;;22.10;99.90;;;;;;6695599;88;20319;-79
2021/08/21 08:46:02;;;;;;;6.60;3.60;;;23.30;99.90;;;;;;6701881;88;20279;-78
2021/08/21 08:56:04;;;;;;;5.30;3.37;;;24.20;99.90;;;;;;6694848;88;20240;-78
2021/08/21 09:06:04;;;;;;;5.93;3.10;;;24.40;99.90;;;;;;6698705;88;20308;-76
2021/08/21 09:16:05;;;;;;;8.48;3.40;;;24.70;99.90;;;;;;6701462;88;20382;-78
2021/08/21 09:26:25;;;;;;;4.15;2.92;;;25.60;99.90;;;;;;6693160;88;20204;-78
2021/08/21 09:36:35;;;;;;;3.83;2.60;;;26.20;99.90;;;;;;6704230;88;20210;-78
2021/08/21 09:46:37;;;;;;;3.72;2.35;;;26.20;99.90;;;;;;6711085;88;20307;-78
2021/08/21 09:56:40;;;;;;;4.77;2.10;;;25.90;99.90;;;;;;6696916;88;20640;-80
2021/08/21 10:06:41;;;;;;;;;;;25.60;99.90;;;;;;6695279;88;20258;-77
2021/08/21 10:16:42;;;;;;;2.80;1.87;;;25.80;99.90;;;;;;6692017;88;20073;-78
2021/08/21 10:26:43;;;;;;;2.80;2.17;;;26.10;99.90;;;;;;6691463;88;20195;-78
2021/08/21 10:36:46;;;;;;;2.40;1.60;;;25.90;99.90;;;;;;6698410;88;20606;-78
2021/08/21 10:46:51;;;;;;;5.67;1.90;;;26.30;99.90;;;;;;6698166;88;20196;-78
2021/08/21 10:56:53;;;;;;;5.62;1.92;;;26.60;99.90;;;;;;6698288;88;20617;-79
2021/08/21 11:07:29;;;;;;;4.90;1.80;;;27.80;99.10;;;;;;6703305;77;20308;-79
2021/08/21 11:17:33;;;;;;;5.25;1.95;;;28.10;99.50;;;;;;6702390;88;20732;-80
2021/08/21 11:27:36;;;;;;;3.75;2.00;;;28.70;98.00;;;;;;6699541;88;20189;-82
2021/08/21 11:37:44;;;;;;;5.12;2.40;;;27.80;97.50;;;;;;6702023;88;20222;-79
2021/08/21 11:57:50;;;;;;;2.75;1.83;;;30.00;94.80;;;;;;6715622;88;20231;-80
2021/08/21 12:07:51;;;;;;;4.62;2.03;;;29.40;94.20;;;;;;6712924;88;20285;-80
2021/08/21 12:17:51;;;;;;;3.92;2.20;;;29.80;93.30;;;;;;6712116;88;20182;-79
2021/08/21 12:28:08;;;;;;;3.33;2.05;;;29.40;92.70;;;;;;6699368;88;20191;-80
2021/08/21 12:38:09;;;;;;;3.30;2.08;;;29.80;94.30;;;;;;6703245;88;20221;-79
2021/08/21 12:48:10;;;;;;;3.75;2.15;;;29.80;94.00;;;;;;6699631;88;20220;-79
2021/08/21 12:58:11;;;;;;;4.80;2.20;;;29.70;93.20;;;;;;6720694;88;20331;-79
2021/08/21 13:08:11;;;;;;;2.90;2.00;;;30.10;93.10;;;;;;6720386;88;20185;-79
2021/08/21 13:18:12;;;;;;;3.00;2.40;;;30.30;93.00;;;;;;6720347;88;20675;-78
2021/08/21 13:28:12;;;;;;;3.65;2.30;;;29.40;94.00;;;;;;6720838;88;20335;-79
2021/08/21 13:38:13;;;;;;;3.22;1.87;;;29.20;94.00;;;;;;6720701;88;20370;-79
2021/08/21 13:48:14;;;;;;;4.13;2.00;;;30.00;93.40;;;;;;6720368;88;20200;-78
2021/08/21 13:58:15;;;;;;;3.12;2.10;;;30.10;94.30;;;;;;6722985;88;20189;-79
2021/08/21 14:08:16;;;;;;;3.00;2.30;;;30.00;94.50;;;;;;6719220;88;20256;-79
2021/08/21 14:18:16;;;;;;;2.67;2.00;;;30.30;93.10;;;;;;6722691;88;20189;-79
2021/08/21 14:28:18;;;;;;;2.83;2.20;;;30.40;93.40;;;;;;6719516;88;20737;-79
2021/08/21 14:38:18;;;;;;;4.07;2.20;;;30.20;93.20;;;;;;6722862;88;20261;-79
2021/08/21 14:48:19;;;;;;;3.22;2.17;;;30.30;92.60;;;;;;6723789;88;20245;-80
2021/08/21 14:58:19;;;;;;;3.83;2.20;;;28.90;93.80;;;;;;6726856;88;20209;-79
2021/08/21 15:08:20;;;;;;;5.78;2.28;;;28.30;95.20;;;;;;6725660;88;20235;-80
2021/08/21 15:18:21;;;;;;;4.87;2.50;;;28.50;94.90;;;;;;6725828;88;20628;-80
2021/08/21 15:28:21;;;;;;;6.63;2.47;;;28.10;95.60;;;;;;6724440;88;20241;-80
2021/08/21 15:38:22;;;;;;;3.05;2.42;;;28.80;95.90;;;;;;6725385;88;21113;-80
2021/08/21 15:48:25;;;;;;;3.50;2.10;;;28.70;95.90;;;;;;6724289;88;20713;-79
2021/08/21 15:58:26;;;;;;;4.68;2.90;;;28.00;95.60;;;;;;6725795;88;20216;-79
2021/08/21 16:08:26;;;;;;;4.97;2.75;;;27.80;96.40;;;;;;6721862;88;20228;-79
2021/08/21 16:18:27;;;;;;;2.80;2.20;;;27.40;96.90;;;;;;6724781;88;20205;-80
2021/08/21 16:28:27;;;;;;;3.40;2.53;;;27.50;96.60;;;;;;6733271;88;20225;-79
2021/08/21 16:38:28;;;;;;;3.00;2.55;;;27.40;96.80;;;;;;6721714;88;20580;-79
2021/08/21 16:48:28;;;;;;;4.75;2.85;;;27.40;97.50;;;;;;6724595;88;20255;-79
2021/08/21 16:58:32;;;;;;;4.10;2.75;;;27.30;98.10;;;;;;6725202;88;20670;-80
2021/08/21 17:08:34;;;;;;;4.78;3.17;;;26.90;98.50;;;;;;6691474;77;20246;-77
2021/08/21 17:18:35;;;;;;;7.67;5.53;;;26.90;99.60;;;;;;6679113;88;20632;-78
2021/08/21 17:28:36;;;;;;;6.22;4.12;;;26.60;99.90;;;;;;6680822;88;20226;-77
2021/08/21 17:38:36;;;;;;;6.90;4.03;;;26.60;99.90;;;;;;6689658;88;20741;-78
2021/08/21 17:48:37;;;;;;;7.50;4.30;;;26.20;99.90;;;;;;6699089;88;20231;-76
2021/08/21 17:58:37;;;;;;;8.40;4.87;;;25.70;99.90;;;;;;6698530;88;20213;-75
2021/08/21 18:08:38;;;;;;;6.20;4.05;;;25.50;99.90;;;;;;6698642;88;20201;-78
2021/08/21 18:18:39;;;;;;;6.90;3.55;;;25.20;99.90;;;;;;6684434;88;20211;-79
2021/08/21 18:28:39;;;;;;;7.95;4.43;;;24.70;99.90;;;;;;6687380;88;20316;-77
2021/08/21 18:38:41;;;;;;;7.85;5.57;;;24.40;99.90;;;;;;6699156;88;20188;-78
2021/08/21 18:48:42;;;;;;;7.32;4.43;;;24.20;99.90;;;;;;6689829;88;20212;-76
2021/08/21 18:58:43;;;;;;;6.13;3.90;;;23.80;99.90;;;;;;6688357;88;20187;-78
2021/08/21 19:08:43;;;;;;;6.82;4.57;;;23.40;99.90;;;;;;6691577;88;20647;-77
2021/08/21 19:18:44;;;;;;;6.93;5.30;;;23.30;99.90;;;;;;6697671;88;20193;-79
2021/08/21 19:28:45;;;;;;;7.10;5.32;;;22.90;99.90;;;;;;6697376;88;20216;-77
2021/08/21 19:38:46;;;;;;;9.55;5.50;;;22.60;99.90;;;;;;6698217;88;20235;-77
2021/08/21 19:48:47;;;;;;;11.82;5.70;;;22.40;99.90;;;;;;6682014;88;20326;-79
2021/08/21 19:58:48;;;;;;;7.37;5.60;;;22.30;99.90;;;;;;6679877;88;20203;-78
2021/08/21 20:08:48;;;;;;;8.75;6.07;;;22.10;99.90;;;;;;6679742;88;20226;-79
2021/08/21 20:18:49;;;;;;;9.68;5.60;;;21.90;99.90;;;;;;6680007;88;20322;-78
2021/08/21 20:28:49;;;;;;;7.65;4.60;;;21.50;99.90;;;;;;6679278;88;20278;-77
2021/08/21 20:38:50;;;;;;;10.18;5.00;;;21.80;99.90;;;;;;6681780;88;20214;-76
2021/08/21 20:48:52;;;;;;;8.18;5.05;;;22.00;99.90;;;;;;6679789;88;20219;-75
2021/08/21 20:58:52;;;;;;;8.30;5.60;;;21.80;99.90;;;;;;6686706;88;20254;-77
2021/08/21 21:08:53;;;;;;;7.65;5.97;;;21.40;99.90;;;;;;6682303;89;20620;-77
2021/08/21 21:18:53;;;;;;;12.52;7.10;;;21.10;99.90;;;;;;6685008;89;20270;-77
2021/08/21 21:28:54;;;;;;;11.52;7.65;;;21.00;99.90;;;;;;6685033;88;20182;-76
2021/08/21 21:38:55;;;;;;;10.80;6.93;;;20.50;99.90;;;;;;6696619;88;20198;-77
2021/08/21 21:48:55;;;;;;;11.38;7.53;;;20.00;99.90;;;;;;6695048;88;20242;-77
2021/08/21 21:58:56;;;;;;;10.25;6.87;;;20.50;99.90;;;;;;6695503;88;20218;-75
2021/08/21 22:08:56;;;;;;;8.77;6.87;;;20.20;99.90;;;;;;6691638;88;20195;-75
2021/08/21 22:18:57;;;;;;;10.45;7.03;;;20.10;99.90;;;;;;6697026;88;20189;-75
2021/08/21 22:28:57;;;;;;;9.43;5.87;;;19.80;99.90;;;;;;6692805;88;20213;-74
2021/08/21 22:38:58;;;;;;;9.40;5.65;;;19.90;99.90;;;;;;6688777;88;20234;-77
2021/08/21 22:48:59;;;;;;;11.20;6.40;;;19.70;99.90;;;;;;6691592;88;20230;-75
2021/08/21 22:59:00;;;;;;;8.43;6.70;;;19.80;99.90;;;;;;6683468;88;20167;-75
2021/08/21 23:09:01;;;;;;;9.13;7.03;;;19.60;99.90;;;;;;6690483;88;20294;-74
2021/08/21 23:19:01;;;;;;;13.20;7.57;;;19.50;99.90;;;;;;6697139;88;20216;-76
2021/08/21 23:29:04;;;;;;;9.13;6.72;;;19.50;99.90;;;;;;6696356;88;20685;-75
2021/08/21 23:39:05;;;;;;;13.38;7.22;;;19.30;99.90;;;;;;6695568;88;20182;-76
2021/08/21 23:49:06;;;;;;;10.90;6.80;;;19.30;99.90;;;;;;6696042;88;20690;-76
2021/08/21 23:59:07;;;;;;;9.43;6.55;;;19.30;99.90;;;;;;6694565;88;20231;-76
